sensor_id;sensor_type;location;lat;lon;timestamp;P1;durP1;ratioP1;P2;durP2;ratioP2
7154;SDS011;3619;53.784;10.440;2024-03-23T00:55:38;146.50;;;141.40;;
7154;SDS011;3619;53.784;10.440;2024-03-23T00:58:06;133.00;;;128.37;;
7154;SDS011;3619;53.784;10.440;2024-03-23T01:00:32;160.00;;;154.43;;
7154;SDS011;3619;53.784;10.440;2024-03-23T01:03:00;140.47;;;135.57;;
7154;SDS011;3619;53.784;10.440;2024-03-23T01:05:26;147.47;;;142.37;;
7154;SDS011;3619;53.784;10.440;2024-03-23T01:07:53;155.50;;;150.10;;
7154;SDS011;3619;53.784;10.440;2024-03-23T01:10:20;136.63;;;131.87;;
7154;SDS011;3619;53.784;10.440;2024-03-23T01:12:50;130.47;;;125.90;;
7154;SDS011;3619;53.784;10.440;2024-03-23T01:15:16;133.73;;;129.03;;
7154;SDS011;3619;53.784;10.440;2024-03-23T01:17:44;130.97;;;126.37;;
7154;SDS011;3619;53.784;10.440;2024-03-23T01:20:18;171.77;;;165.70;;
7154;SDS011;3619;53.784;10.440;2024-03-23T01:22:49;127.23;;;122.80;;
7154;SDS011;3619;53.784;10.440;2024-03-23T01:25:21;179.33;;;173.23;;
7154;SDS011;3619;53.784;10.440;2024-03-23T01:27:50;128.10;;;123.60;;
7154;SDS011;3619;53.784;10.440;2024-03-23T01:30:18;115.23;;;111.17;;
7154;SDS011;3619;53.784;10.440;2024-03-23T01:32:48;129.77;;;125.27;;
7154;SDS011;3619;53.784;10.440;2024-03-23T01:35:14;123.80;;;119.50;;
7154;SDS011;3619;53.784;10.440;2024-03-23T01:37:41;149.90;;;144.70;;
7154;SDS011;3619;53.784;10.440;2024-03-23T01:40:08;145.63;;;140.60;;
7154;SDS011;3619;53.784;10.440;2024-03-23T01:42:38;140.90;;;136.00;;
7154;SDS011;3619;53.784;10.440;2024-03-23T01:45:09;124.50;;;120.10;;
7154;SDS011;3619;53.784;10.440;2024-03-23T01:47:37;163.50;;;157.90;;
7154;SDS011;3619;53.784;10.440;2024-03-23T01:50:05;114.10;;;110.07;;
7154;SDS011;3619;53.784;10.440;2024-03-23T01:52:36;131.60;;;127.00;;
7154;SDS011;3619;53.784;10.440;2024-03-23T01:55:03;127.13;;;122.63;;
7154;SDS011;3619;53.784;10.440;2024-03-23T01:57:30;176.57;;;170.50;;
7154;SDS011;3619;53.784;10.440;2024-03-23T01:59:57;172.27;;;166.27;;
7154;SDS011;3619;53.784;10.440;2024-03-23T02:02:25;221.50;;;213.80;;
7154;SDS011;3619;53.784;10.440;2024-03-23T02:04:51;136.70;;;131.90;;
7154;SDS011;3619;53.784;10.440;2024-03-23T02:07:18;134.50;;;129.80;;
7154;SDS011;3619;53.784;10.440;2024-03-23T02:09:44;132.47;;;127.80;;
7154;SDS011;3619;53.784;10.440;2024-03-23T02:12:11;130.87;;;126.27;;
7154;SDS011;3619;53.784;10.440;2024-03-23T02:14:37;145.47;;;140.40;;
7154;SDS011;3619;53.784;10.440;2024-03-23T02:17:04;157.80;;;152.30;;
7154;SDS011;3619;53.784;10.440;2024-03-23T02:19:31;127.17;;;122.70;;
7154;SDS011;3619;53.784;10.440;2024-03-23T02:21:58;135.10;;;130.40;;
7154;SDS011;3619;53.784;10.440;2024-03-23T02:24:33;123.43;;;119.10;;
7154;SDS011;3619;53.784;10.440;2024-03-23T02:27:00;150.77;;;145.50;;
7154;SDS011;3619;53.784;10.440;2024-03-23T02:29:27;138.93;;;134.03;;
7154;SDS011;3619;53.784;10.440;2024-03-23T02:31:54;130.17;;;125.57;;
7154;SDS011;3619;53.784;10.440;2024-03-23T02:34:20;120.50;;;116.27;;
7154;SDS011;3619;53.784;10.440;2024-03-23T02:36:46;155.40;;;150.00;;
7154;SDS011;3619;53.784;10.440;2024-03-23T02:39:13;177.90;;;171.80;;
7154;SDS011;3619;53.784;10.440;2024-03-23T02:41:41;171.83;;;165.90;;
7154;SDS011;3619;53.784;10.440;2024-03-23T02:44:08;183.63;;;177.30;;
7154;SDS011;3619;53.784;10.440;2024-03-23T02:46:37;172.63;;;166.67;;
7154;SDS011;3619;53.784;10.440;2024-03-23T02:49:08;208.60;;;201.47;;
7154;SDS011;3619;53.784;10.440;2024-03-23T02:51:36;216.30;;;208.90;;
7154;SDS011;3619;53.784;10.440;2024-03-23T02:54:02;230.40;;;222.50;;
7154;SDS011;3619;53.784;10.440;2024-03-23T02:56:31;237.03;;;228.87;;
7154;SDS011;3619;53.784;10.440;2024-03-23T02:58:59;243.00;;;234.60;;
7154;SDS011;3619;53.784;10.440;2024-03-23T03:01:27;210.03;;;202.83;;
7154;SDS011;3619;53.784;10.440;2024-03-23T03:03:53;221.70;;;214.13;;
7154;SDS011;3619;53.784;10.440;2024-03-23T03:06:23;233.77;;;225.77;;
7154;SDS011;3619;53.784;10.440;2024-03-23T03:08:50;233.77;;;225.77;;
7154;SDS011;3619;53.784;10.440;2024-03-23T03:11:21;237.87;;;229.67;;
7154;SDS011;3619;53.784;10.440;2024-03-23T03:13:47;239.33;;;231.13;;
7154;SDS011;3619;53.784;10.440;2024-03-23T03:16:17;232.87;;;224.93;;
7154;SDS011;3619;53.784;10.440;2024-03-23T03:18:44;243.47;;;235.10;;
7154;SDS011;3619;53.784;10.440;2024-03-23T03:21:12;224.50;;;216.80;;
7154;SDS011;3619;53.784;10.440;2024-03-23T03:23:42;248.97;;;240.40;;
7154;SDS011;3619;53.784;10.440;2024-03-23T03:26:13;236.50;;;228.37;;
7154;SDS011;3619;53.784;10.440;2024-03-23T03:28:40;151.03;;;145.80;;
7154;SDS011;3619;53.784;10.440;2024-03-23T03:31:09;141.53;;;136.60;;
7154;SDS011;3619;53.784;10.440;2024-03-23T03:33:38;190.77;;;184.27;;
7154;SDS011;3619;53.784;10.440;2024-03-23T03:36:13;134.40;;;129.70;;
7154;SDS011;3619;53.784;10.440;2024-03-23T03:38:49;163.27;;;157.60;;
7154;SDS011;3619;53.784;10.440;2024-03-23T03:41:18;164.17;;;158.47;;
7154;SDS011;3619;53.784;10.440;2024-03-23T03:43:44;160.80;;;155.20;;
7154;SDS011;3619;53.784;10.440;2024-03-23T03:46:11;187.33;;;180.93;;
7154;SDS011;3619;53.784;10.440;2024-03-23T03:48:45;162.37;;;156.77;;
7154;SDS011;3619;53.784;10.440;2024-03-23T03:51:16;184.23;;;177.93;;
7154;SDS011;3619;53.784;10.440;2024-03-23T03:53:46;171.53;;;165.53;;
7154;SDS011;3619;53.784;10.440;2024-03-23T03:56:14;140.97;;;136.07;;
7154;SDS011;3619;53.784;10.440;2024-03-23T03:58:46;144.07;;;139.03;;
7154;SDS011;3619;53.784;10.440;2024-03-23T04:01:14;172.83;;;166.87;;
7154;SDS011;3619;53.784;10.440;2024-03-23T04:03:44;148.00;;;142.83;;
7154;SDS011;3619;53.784;10.440;2024-03-23T04:06:18;169.13;;;163.33;;
7154;SDS011;3619;53.784;10.440;2024-03-23T04:08:44;188.37;;;181.87;;
7154;SDS011;3619;53.784;10.440;2024-03-23T04:11:13;198.57;;;191.67;;
7154;SDS011;3619;53.784;10.440;2024-03-23T04:13:40;222.83;;;215.10;;
7154;SDS011;3619;53.784;10.440;2024-03-23T04:16:09;164.10;;;158.40;;
7154;SDS011;3619;53.784;10.440;2024-03-23T04:18:35;170.97;;;164.97;;
7154;SDS011;3619;53.784;10.440;2024-03-23T04:21:05;187.53;;;180.93;;
7154;SDS011;3619;53.784;10.440;2024-03-23T04:23:32;150.00;;;144.73;;
7154;SDS011;3619;53.784;10.440;2024-03-23T04:26:02;202.27;;;195.27;;
7154;SDS011;3619;53.784;10.440;2024-03-23T04:28:29;159.67;;;154.07;;
7154;SDS011;3619;53.784;10.440;2024-03-23T04:30:56;139.97;;;135.07;;
7154;SDS011;3619;53.784;10.440;2024-03-23T04:33:23;153.23;;;147.87;;
7154;SDS011;3619;53.784;10.440;2024-03-23T04:35:55;170.73;;;164.80;;
7154;SDS011;3619;53.784;10.440;2024-03-23T04:38:29;177.00;;;170.83;;
7154;SDS011;3619;53.784;10.440;2024-03-23T04:41:02;194.87;;;188.13;;
7154;SDS011;3619;53.784;10.440;2024-03-23T04:43:32;201.67;;;194.77;;
7154;SDS011;3619;53.784;10.440;2024-03-23T04:46:00;207.43;;;200.33;;
7154;SDS011;3619;53.784;10.440;2024-03-23T04:48:27;199.93;;;193.03;;
7154;SDS011;3619;53.784;10.440;2024-03-23T04:50:55;200.97;;;193.93;;
7154;SDS011;3619;53.784;10.440;2024-03-23T04:53:24;194.70;;;187.77;;
7154;SDS011;3619;53.784;10.440;2024-03-23T04:55:54;191.90;;;185.30;;
7154;SDS011;3619;53.784;10.440;2024-03-23T04:58:21;192.53;;;185.90;;
7154;SDS011;3619;53.784;10.440;2024-03-23T05:00:48;196.70;;;189.90;;
7154;SDS011;3619;53.784;10.440;2024-03-23T05:03:22;177.43;;;171.27;;
7154;SDS011;3619;53.784;10.440;2024-03-23T05:05:51;194.87;;;188.13;;
7154;SDS011;3619;53.784;10.440;2024-03-23T05:08:16;194.93;;;188.13;;
7154;SDS011;3619;53.784;10.440;2024-03-23T05:10:45;191.97;;;185.27;;
7154;SDS011;3619;53.784;10.440;2024-03-23T05:13:16;189.07;;;182.50;;
7154;SDS011;3619;53.784;10.440;2024-03-23T05:15:44;198.37;;;191.47;;
7154;SDS011;3619;53.784;10.440;2024-03-23T05:18:10;199.40;;;192.50;;
7154;SDS011;3619;53.784;10.440;2024-03-23T05:20:40;201.30;;;194.40;;
7154;SDS011;3619;53.784;10.440;2024-03-23T05:23:06;192.10;;;185.50;;
7154;SDS011;3619;53.784;10.440;2024-03-23T05:25:33;191.43;;;184.90;;
7154;SDS011;3619;53.784;10.440;2024-03-23T05:27:59;183.13;;;176.83;;
7154;SDS011;3619;53.784;10.440;2024-03-23T05:30:34;138.67;;;133.80;;
7154;SDS011;3619;53.784;10.440;2024-03-23T05:33:04;160.33;;;154.77;;
7154;SDS011;3619;53.784;10.440;2024-03-23T05:35:31;150.67;;;145.37;;
7154;SDS011;3619;53.784;10.440;2024-03-23T05:37:57;180.40;;;174.20;;
7154;SDS011;3619;53.784;10.440;2024-03-23T05:40:25;163.80;;;158.10;;
7154;SDS011;3619;53.784;10.440;2024-03-23T05:42:52;178.33;;;172.13;;
7154;SDS011;3619;53.784;10.440;2024-03-23T05:45:20;165.90;;;160.10;;
7154;SDS011;3619;53.784;10.440;2024-03-23T05:47:48;165.57;;;159.77;;
7154;SDS011;3619;53.784;10.440;2024-03-23T05:50:15;142.60;;;137.57;;
7154;SDS011;3619;53.784;10.440;2024-03-23T05:52:43;157.17;;;151.67;;
7154;SDS011;3619;53.784;10.440;2024-03-23T05:55:09;144.43;;;139.33;;
7154;SDS011;3619;53.784;10.440;2024-03-23T05:57:35;134.37;;;129.57;;
7154;SDS011;3619;53.784;10.440;2024-03-23T06:00:02;163.90;;;158.20;;
7154;SDS011;3619;53.784;10.440;2024-03-23T06:02:31;170.63;;;164.67;;
7154;SDS011;3619;53.784;10.440;2024-03-23T06:05:03;136.47;;;131.67;;
7154;SDS011;3619;53.784;10.440;2024-03-23T06:07:30;132.47;;;127.77;;
7154;SDS011;3619;53.784;10.440;2024-03-23T06:09:59;100.27;;;96.67;;
7154;SDS011;3619;53.784;10.440;2024-03-23T06:12:28;109.10;;;105.20;;
7154;SDS011;3619;53.784;10.440;2024-03-23T06:14:57;115.80;;;111.63;;
7154;SDS011;3619;53.784;10.440;2024-03-23T06:17:24;120.20;;;115.90;;
7154;SDS011;3619;53.784;10.440;2024-03-23T06:19:51;124.17;;;119.77;;
7154;SDS011;3619;53.784;10.440;2024-03-23T06:22:19;181.20;;;174.93;;
7154;SDS011;3619;53.784;10.440;2024-03-23T06:24:50;137.50;;;132.60;;
7154;SDS011;3619;53.784;10.440;2024-03-23T06:27:17;139.03;;;134.07;;
7154;SDS011;3619;53.784;10.440;2024-03-23T06:29:44;152.10;;;146.70;;
7154;SDS011;3619;53.784;10.440;2024-03-23T06:32:10;134.13;;;129.33;;
7154;SDS011;3619;53.784;10.440;2024-03-23T06:34:37;147.83;;;142.60;;
7154;SDS011;3619;53.784;10.440;2024-03-23T06:37:04;147.07;;;141.77;;
7154;SDS011;3619;53.784;10.440;2024-03-23T06:39:31;141.10;;;136.07;;
7154;SDS011;3619;53.784;10.440;2024-03-23T06:41:58;131.90;;;127.13;;
7154;SDS011;3619;53.784;10.440;2024-03-23T06:44:24;131.40;;;126.60;;
7154;SDS011;3619;53.784;10.440;2024-03-23T06:46:51;120.47;;;116.17;;
7154;SDS011;3619;53.784;10.440;2024-03-23T06:49:17;122.67;;;118.23;;
7154;SDS011;3619;53.784;10.440;2024-03-23T06:51:44;116.90;;;112.70;;
7154;SDS011;3619;53.784;10.440;2024-03-23T06:54:10;100.10;;;96.43;;
7154;SDS011;3619;53.784;10.440;2024-03-23T06:56:39;115.37;;;111.17;;
7154;SDS011;3619;53.784;10.440;2024-03-23T06:59:05;90.97;;;87.60;;
7154;SDS011;3619;53.784;10.440;2024-03-23T07:01:32;67.43;;;64.83;;
7154;SDS011;3619;53.784;10.440;2024-03-23T07:04:00;81.17;;;78.17;;
7154;SDS011;3619;53.784;10.440;2024-03-23T07:06:27;86.93;;;83.73;;
7154;SDS011;3619;53.784;10.440;2024-03-23T07:09:00;74.40;;;71.60;;
7154;SDS011;3619;53.784;10.440;2024-03-23T07:11:28;80.43;;;77.47;;
7154;SDS011;3619;53.784;10.440;2024-03-23T07:13:59;78.27;;;75.37;;
7154;SDS011;3619;53.784;10.440;2024-03-23T07:16:26;97.17;;;93.67;;
7154;SDS011;3619;53.784;10.440;2024-03-23T07:18:52;57.20;;;55.00;;
7154;SDS011;3619;53.784;10.440;2024-03-23T07:21:19;63.53;;;61.13;;
7154;SDS011;3619;53.784;10.440;2024-03-23T07:23:46;67.37;;;64.83;;
7154;SDS011;3619;53.784;10.440;2024-03-23T07:26:12;76.00;;;73.20;;
7154;SDS011;3619;53.784;10.440;2024-03-23T07:28:39;71.33;;;68.63;;
7154;SDS011;3619;53.784;10.440;2024-03-23T07:31:11;55.17;;;53.07;;
7154;SDS011;3619;53.784;10.440;2024-03-23T07:33:41;92.20;;;88.90;;
7154;SDS011;3619;53.784;10.440;2024-03-23T07:36:08;121.83;;;117.53;;
7154;SDS011;3619;53.784;10.440;2024-03-23T07:38:35;82.40;;;79.40;;
7154;SDS011;3619;53.784;10.440;2024-03-23T07:41:04;86.80;;;83.60;;
7154;SDS011;3619;53.784;10.440;2024-03-23T07:43:31;65.63;;;63.13;;
7154;SDS011;3619;53.784;10.440;2024-03-23T07:45:57;59.70;;;57.40;;
7154;SDS011;3619;53.784;10.440;2024-03-23T07:48:26;67.10;;;64.60;;
7154;SDS011;3619;53.784;10.440;2024-03-23T07:50:59;52.07;;;50.07;;
7154;SDS011;3619;53.784;10.440;2024-03-23T07:53:27;50.20;;;48.30;;
7154;SDS011;3619;53.784;10.440;2024-03-23T07:55:56;67.97;;;65.37;;
7154;SDS011;3619;53.784;10.440;2024-03-23T07:58:24;64.17;;;61.77;;
7154;SDS011;3619;53.784;10.440;2024-03-23T08:00:50;55.57;;;53.47;;
7154;SDS011;3619;53.784;10.440;2024-03-23T08:03:21;65.23;;;62.73;;
7154;SDS011;3619;53.784;10.440;2024-03-23T08:05:53;58.70;;;56.47;;
7154;SDS011;3619;53.784;10.440;2024-03-23T08:08:25;68.00;;;65.40;;
7154;SDS011;3619;53.784;10.440;2024-03-23T08:10:59;75.30;;;72.50;;
7154;SDS011;3619;53.784;10.440;2024-03-23T08:13:28;79.53;;;76.63;;
7154;SDS011;3619;53.784;10.440;2024-03-23T08:15:56;81.13;;;78.13;;
7154;SDS011;3619;53.784;10.440;2024-03-23T08:18:30;106.23;;;102.50;;
7154;SDS011;3619;53.784;10.440;2024-03-23T08:20:58;113.57;;;109.57;;
7154;SDS011;3619;53.784;10.440;2024-03-23T08:23:25;150.77;;;145.63;;
7154;SDS011;3619;53.784;10.440;2024-03-23T08:25:52;302.80;;;292.73;;
7154;SDS011;3619;53.784;10.440;2024-03-23T08:28:23;421.60;;;407.63;;
7154;SDS011;3619;53.784;10.440;2024-03-23T08:30:49;467.60;;;451.53;;
7154;SDS011;3619;53.784;10.440;2024-03-23T08:33:16;591.23;;;570.10;;
7154;SDS011;3619;53.784;10.440;2024-03-23T08:35:42;592.63;;;571.40;;
7154;SDS011;3619;53.784;10.440;2024-03-23T08:38:10;611.00;;;589.53;;
7154;SDS011;3619;53.784;10.440;2024-03-23T08:40:36;709.07;;;680.83;;
7154;SDS011;3619;53.784;10.440;2024-03-23T08:43:03;803.67;;;770.97;;
7154;SDS011;3619;53.784;10.440;2024-03-23T08:45:29;826.67;;;790.90;;
7154;SDS011;3619;53.784;10.440;2024-03-23T08:47:56;871.30;;;832.37;;
7154;SDS011;3619;53.784;10.440;2024-03-23T08:50:22;950.80;;;904.77;;
7154;SDS011;3619;53.784;10.440;2024-03-23T08:52:50;985.27;;;936.63;;
7154;SDS011;3619;53.784;10.440;2024-03-23T08:55:17;1012.27;;;962.03;;
7154;SDS011;3619;53.784;10.440;2024-03-23T08:57:44;940.30;;;892.30;;
7154;SDS011;3619;53.784;10.440;2024-03-23T09:00:11;962.50;;;913.03;;
7154;SDS011;3619;53.784;10.440;2024-03-23T09:02:40;942.40;;;896.33;;
7154;SDS011;3619;53.784;10.440;2024-03-23T09:05:06;917.53;;;867.67;;
7154;SDS011;3619;53.784;10.440;2024-03-23T09:07:34;897.97;;;853.50;;
7154;SDS011;3619;53.784;10.440;2024-03-23T09:10:01;885.20;;;838.70;;
7154;SDS011;3619;53.784;10.440;2024-03-23T09:12:30;899.77;;;849.33;;
7154;SDS011;3619;53.784;10.440;2024-03-23T09:14:55;969.00;;;916.00;;
7154;SDS011;3619;53.784;10.440;2024-03-23T09:17:22;1010.77;;;952.73;;
7154;SDS011;3619;53.784;10.440;2024-03-23T09:19:48;1174.03;;;999.90;;
7154;SDS011;3619;53.784;10.440;2024-03-23T09:22:15;1149.70;;;999.90;;
7154;SDS011;3619;53.784;10.440;2024-03-23T09:24:41;995.67;;;931.60;;
7154;SDS011;3619;53.784;10.440;2024-03-23T09:27:08;815.40;;;771.50;;
7154;SDS011;3619;53.784;10.440;2024-03-23T09:29:35;649.43;;;622.83;;
7154;SDS011;3619;53.784;10.440;2024-03-23T09:32:03;591.23;;;569.20;;
7154;SDS011;3619;53.784;10.440;2024-03-23T09:34:29;596.13;;;573.50;;
7154;SDS011;3619;53.784;10.440;2024-03-23T09:36:56;366.47;;;353.97;;
7154;SDS011;3619;53.784;10.440;2024-03-23T09:39:22;227.90;;;220.40;;
7154;SDS011;3619;53.784;10.440;2024-03-23T09:41:49;212.77;;;205.87;;
7154;SDS011;3619;53.784;10.440;2024-03-23T09:44:15;160.93;;;155.57;;
7154;SDS011;3619;53.784;10.440;2024-03-23T09:46:43;448.47;;;433.00;;
7154;SDS011;3619;53.784;10.440;2024-03-23T09:49:09;787.40;;;749.83;;
7154;SDS011;3619;53.784;10.440;2024-03-23T09:51:36;898.20;;;848.07;;
7154;SDS011;3619;53.784;10.440;2024-03-23T09:54:02;923.13;;;871.50;;
7154;SDS011;3619;53.784;10.440;2024-03-23T09:56:29;790.60;;;752.30;;
7154;SDS011;3619;53.784;10.440;2024-03-23T09:59:02;463.90;;;448.40;;
7154;SDS011;3619;53.784;10.440;2024-03-23T10:01:30;193.27;;;186.90;;
7154;SDS011;3619;53.784;10.440;2024-03-23T10:04:07;103.43;;;99.80;;
7154;SDS011;3619;53.784;10.440;2024-03-23T10:06:38;87.07;;;83.97;;
7154;SDS011;3619;53.784;10.440;2024-03-23T10:09:28;43.40;;;41.73;;
7154;SDS011;3619;53.784;10.440;2024-03-23T10:12:09;21.13;;;20.33;;
7154;SDS011;3619;53.784;10.440;2024-03-23T10:14:37;15.40;;;14.83;;
7154;SDS011;3619;53.784;10.440;2024-03-23T10:17:11;18.90;;;18.20;;
7154;SDS011;3619;53.784;10.440;2024-03-23T10:19:40;14.10;;;13.60;;
7154;SDS011;3619;53.784;10.440;2024-03-23T10:22:09;12.87;;;12.37;;
7154;SDS011;3619;53.784;10.440;2024-03-23T10:24:35;7.70;;;7.40;;
7154;SDS011;3619;53.784;10.440;2024-03-23T10:27:02;8.03;;;7.63;;
7154;SDS011;3619;53.784;10.440;2024-03-23T10:29:28;5.83;;;5.63;;
7154;SDS011;3619;53.784;10.440;2024-03-23T10:32:07;5.53;;;5.33;;
7154;SDS011;3619;53.784;10.440;2024-03-23T10:34:33;5.00;;;4.80;;
7154;SDS011;3619;53.784;10.440;2024-03-23T10:37:03;7.40;;;7.10;;
7154;SDS011;3619;53.784;10.440;2024-03-23T10:39:30;6.10;;;5.90;;
7154;SDS011;3619;53.784;10.440;2024-03-23T10:42:00;6.13;;;5.93;;
7154;SDS011;3619;53.784;10.440;2024-03-23T10:44:27;6.73;;;6.53;;
7154;SDS011;3619;53.784;10.440;2024-03-23T10:46:56;7.87;;;7.57;;
7154;SDS011;3619;53.784;10.440;2024-03-23T10:49:25;7.27;;;7.00;;
7154;SDS011;3619;53.784;10.440;2024-03-23T10:51:55;7.40;;;7.10;;
7154;SDS011;3619;53.784;10.440;2024-03-23T10:54:26;7.87;;;7.57;;
7154;SDS011;3619;53.784;10.440;2024-03-23T10:56:57;7.70;;;7.40;;
7154;SDS011;3619;53.784;10.440;2024-03-23T10:59:29;7.53;;;7.23;;
7154;SDS011;3619;53.784;10.440;2024-03-23T11:01:58;5.63;;;5.43;;
7154;SDS011;3619;53.784;10.440;2024-03-23T11:04:31;6.47;;;6.27;;
7154;SDS011;3619;53.784;10.440;2024-03-23T11:06:58;6.83;;;6.60;;
7154;SDS011;3619;53.784;10.440;2024-03-23T11:12:25;6.03;;;5.83;;
7154;SDS011;3619;53.784;10.440;2024-03-23T11:14:57;6.03;;;5.83;;
7154;SDS011;3619;53.784;10.440;2024-03-23T11:17:28;6.33;;;6.13;;
7154;SDS011;3619;53.784;10.440;2024-03-23T11:19:55;7.13;;;6.87;;
7154;SDS011;3619;53.784;10.440;2024-03-23T11:22:39;9.00;;;8.70;;
7154;SDS011;3619;53.784;10.440;2024-03-23T11:25:16;9.37;;;9.03;;
7154;SDS011;3619;53.784;10.440;2024-03-23T11:27:45;10.40;;;10.00;;
7154;SDS011;3619;53.784;10.440;2024-03-23T11:30:13;9.20;;;8.87;;
7154;SDS011;3619;53.784;10.440;2024-03-23T11:32:42;11.67;;;11.17;;
7154;SDS011;3619;53.784;10.440;2024-03-23T11:35:09;14.83;;;14.27;;
7154;SDS011;3619;53.784;10.440;2024-03-23T11:37:36;14.23;;;13.73;;
7154;SDS011;3619;53.784;10.440;2024-03-23T11:40:20;12.60;;;12.13;;
7154;SDS011;3619;53.784;10.440;2024-03-23T11:42:52;14.23;;;13.70;;
7154;SDS011;3619;53.784;10.440;2024-03-23T11:45:21;14.27;;;13.77;;
7154;SDS011;3619;53.784;10.440;2024-03-23T11:47:48;15.83;;;15.23;;
7154;SDS011;3619;53.784;10.440;2024-03-23T11:50:19;17.67;;;17.00;;
7154;SDS011;3619;53.784;10.440;2024-03-23T11:52:46;17.97;;;17.30;;
7154;SDS011;3619;53.784;10.440;2024-03-23T11:55:12;22.47;;;21.63;;
7154;SDS011;3619;53.784;10.440;2024-03-23T11:57:40;21.20;;;20.40;;
7154;SDS011;3619;53.784;10.440;2024-03-23T12:00:20;19.13;;;18.40;;
7154;SDS011;3619;53.784;10.440;2024-03-23T12:02:47;13.43;;;12.93;;
7154;SDS011;3619;53.784;10.440;2024-03-23T12:05:14;14.30;;;13.80;;
7154;SDS011;3619;53.784;10.440;2024-03-23T12:07:41;13.90;;;13.40;;
7154;SDS011;3619;53.784;10.440;2024-03-23T12:10:07;11.63;;;11.20;;
7154;SDS011;3619;53.784;10.440;2024-03-23T12:12:35;10.67;;;10.27;;
7154;SDS011;3619;53.784;10.440;2024-03-23T12:15:03;8.30;;;8.00;;
7154;SDS011;3619;53.784;10.440;2024-03-23T12:17:31;12.30;;;11.80;;
7154;SDS011;3619;53.784;10.440;2024-03-23T12:19:57;11.93;;;11.50;;
7154;SDS011;3619;53.784;10.440;2024-03-23T12:22:24;13.47;;;12.97;;
7154;SDS011;3619;53.784;10.440;2024-03-23T12:24:50;13.97;;;13.47;;
7154;SDS011;3619;53.784;10.440;2024-03-23T12:27:18;14.87;;;14.30;;
7154;SDS011;3619;53.784;10.440;2024-03-23T12:29:43;13.53;;;13.03;;
7154;SDS011;3619;53.784;10.440;2024-03-23T12:32:13;16.30;;;15.70;;
7154;SDS011;3619;53.784;10.440;2024-03-23T12:34:39;17.83;;;17.13;;
7154;SDS011;3619;53.784;10.440;2024-03-23T12:37:07;13.70;;;13.20;;
7154;SDS011;3619;53.784;10.440;2024-03-23T12:39:34;12.57;;;12.07;;
7154;SDS011;3619;53.784;10.440;2024-03-23T12:42:02;12.67;;;12.17;;
7154;SDS011;3619;53.784;10.440;2024-03-23T12:44:28;10.87;;;10.47;;
7154;SDS011;3619;53.784;10.440;2024-03-23T12:46:55;11.53;;;11.13;;
7154;SDS011;3619;53.784;10.440;2024-03-23T12:49:22;11.60;;;11.20;;
7154;SDS011;3619;53.784;10.440;2024-03-23T12:51:53;11.20;;;10.80;;
7154;SDS011;3619;53.784;10.440;2024-03-23T12:54:19;12.37;;;11.87;;
7154;SDS011;3619;53.784;10.440;2024-03-23T12:56:46;12.97;;;12.50;;
7154;SDS011;3619;53.784;10.440;2024-03-23T12:59:12;13.90;;;13.40;;
7154;SDS011;3619;53.784;10.440;2024-03-23T13:01:39;14.83;;;14.27;;
7154;SDS011;3619;53.784;10.440;2024-03-23T13:04:05;21.17;;;20.37;;
7154;SDS011;3619;53.784;10.440;2024-03-23T13:06:34;21.97;;;21.13;;
7154;SDS011;3619;53.784;10.440;2024-03-23T13:09:00;29.03;;;27.90;;
7154;SDS011;3619;53.784;10.440;2024-03-23T13:11:28;33.47;;;32.20;;
7154;SDS011;3619;53.784;10.440;2024-03-23T13:13:54;41.67;;;40.10;;
7154;SDS011;3619;53.784;10.440;2024-03-23T13:16:21;46.50;;;44.73;;
7154;SDS011;3619;53.784;10.440;2024-03-23T13:18:47;47.20;;;45.43;;
7154;SDS011;3619;53.784;10.440;2024-03-23T13:21:14;45.83;;;44.10;;
7154;SDS011;3619;53.784;10.440;2024-03-23T13:23:43;39.67;;;38.17;;
7154;SDS011;3619;53.784;10.440;2024-03-23T13:26:13;37.13;;;35.70;;
7154;SDS011;3619;53.784;10.440;2024-03-23T13:28:39;49.40;;;47.53;;
7154;SDS011;3619;53.784;10.440;2024-03-23T13:31:06;60.97;;;58.73;;
7154;SDS011;3619;53.784;10.440;2024-03-23T13:33:33;58.80;;;56.60;;
7154;SDS011;3619;53.784;10.440;2024-03-23T13:36:01;66.30;;;63.90;;
7154;SDS011;3619;53.784;10.440;2024-03-23T13:38:28;81.30;;;78.40;;
7154;SDS011;3619;53.784;10.440;2024-03-23T13:40:56;79.97;;;77.10;;
7154;SDS011;3619;53.784;10.440;2024-03-23T13:43:23;76.77;;;74.00;;
7154;SDS011;3619;53.784;10.440;2024-03-23T13:45:52;68.73;;;66.23;;
7154;SDS011;3619;53.784;10.440;2024-03-23T13:48:20;62.83;;;60.53;;
7154;SDS011;3619;53.784;10.440;2024-03-23T13:50:47;55.53;;;53.47;;
7154;SDS011;3619;53.784;10.440;2024-03-23T13:53:21;41.10;;;39.47;;
7154;SDS011;3619;53.784;10.440;2024-03-23T13:55:50;33.87;;;32.60;;
7154;SDS011;3619;53.784;10.440;2024-03-23T13:58:17;23.40;;;22.50;;
7154;SDS011;3619;53.784;10.440;2024-03-23T14:00:44;20.80;;;20.03;;
7154;SDS011;3619;53.784;10.440;2024-03-23T14:03:10;13.60;;;13.10;;
7154;SDS011;3619;53.784;10.440;2024-03-23T14:05:37;15.27;;;14.67;;
7154;SDS011;3619;53.784;10.440;2024-03-23T14:08:04;10.07;;;9.67;;
7154;SDS011;3619;53.784;10.440;2024-03-23T14:10:31;11.00;;;10.60;;
7154;SDS011;3619;53.784;10.440;2024-03-23T14:12:57;11.03;;;10.63;;
7154;SDS011;3619;53.784;10.440;2024-03-23T14:15:26;11.53;;;11.13;;
7154;SDS011;3619;53.784;10.440;2024-03-23T14:17:52;13.90;;;13.40;;
7154;SDS011;3619;53.784;10.440;2024-03-23T14:20:20;13.37;;;12.87;;
7154;SDS011;3619;53.784;10.440;2024-03-23T14:22:46;14.10;;;13.53;;
7154;SDS011;3619;53.784;10.440;2024-03-23T14:25:13;17.10;;;16.50;;
7154;SDS011;3619;53.784;10.440;2024-03-23T14:27:39;17.40;;;16.77;;
7154;SDS011;3619;53.784;10.440;2024-03-23T14:30:07;15.77;;;15.17;;
7154;SDS011;3619;53.784;10.440;2024-03-23T14:32:35;22.20;;;21.40;;
7154;SDS011;3619;53.784;10.440;2024-03-23T14:35:02;21.30;;;20.50;;
7154;SDS011;3619;53.784;10.440;2024-03-23T14:37:30;24.27;;;23.37;;
7154;SDS011;3619;53.784;10.440;2024-03-23T14:39:56;27.60;;;26.57;;
7154;SDS011;3619;53.784;10.440;2024-03-23T14:42:23;22.60;;;21.77;;
7154;SDS011;3619;53.784;10.440;2024-03-23T14:44:50;22.20;;;21.40;;
7154;SDS011;3619;53.784;10.440;2024-03-23T14:47:17;25.30;;;24.37;;
7154;SDS011;3619;53.784;10.440;2024-03-23T14:49:45;30.10;;;28.93;;
7154;SDS011;3619;53.784;10.440;2024-03-23T14:52:12;38.00;;;36.57;;
7154;SDS011;3619;53.784;10.440;2024-03-23T14:54:38;33.03;;;31.80;;
7154;SDS011;3619;53.784;10.440;2024-03-23T14:57:05;42.10;;;40.53;;
7154;SDS011;3619;53.784;10.440;2024-03-23T14:59:31;45.33;;;43.60;;
7154;SDS011;3619;53.784;10.440;2024-03-23T15:01:58;49.70;;;47.80;;
7154;SDS011;3619;53.784;10.440;2024-03-23T15:04:24;55.20;;;53.10;;
7154;SDS011;3619;53.784;10.440;2024-03-23T15:06:53;44.57;;;42.87;;
7154;SDS011;3619;53.784;10.440;2024-03-23T15:09:19;46.17;;;44.40;;
7154;SDS011;3619;53.784;10.440;2024-03-23T15:11:45;52.87;;;50.87;;
7154;SDS011;3619;53.784;10.440;2024-03-23T15:14:11;49.73;;;47.87;;
7154;SDS011;3619;53.784;10.440;2024-03-23T15:16:38;54.83;;;52.73;;
7154;SDS011;3619;53.784;10.440;2024-03-23T15:19:04;62.67;;;60.33;;
7154;SDS011;3619;53.784;10.440;2024-03-23T15:21:31;72.20;;;69.57;;
7154;SDS011;3619;53.784;10.440;2024-03-23T15:23:59;62.00;;;59.67;;
7154;SDS011;3619;53.784;10.440;2024-03-23T15:26:26;72.93;;;70.27;;